Pierre Regional Airport
KPIR : now visible

Airfield :











YOU CAN JOIN US ON...

 
LOGIN :

Register | Disclaimer

   EN    FR    IT 

 









Legend :    VFR   Marginal VFR   IFR   Intensive IFR   Very Intensive IFR
Visi :
Ceiling :
>= 8 km
>= 3000ft
5 to 8 km
1000 to 3000 ft
1500m to 5 km
500 to 1000 ft
800 to 1500m
200 to 500 ft
< 800m
< 200 ft
Symbols :   Thunderstorms  Fog  Heavy snow  Heavy precipitations  Wind > 20 kt







- Airport Elevation : 1744 ft
- IATA code : PIR


KPIR - Pierre Regional

CURRENT METAR :
  • 201753Z AUTO VRB04KT 10SM SCT090 23/17 A2999 RMK AO2 SLP142 60016 T02280167 10228 20144 53019

EXPIRED METARs :
  • 201653Z AUTO 22005KT 10SM FEW020 OVC090 21/16 A2996 RMK AO2 SLP135 T02060161
  • 201553Z AUTO 00000KT 10SM FEW060 SCT090 21/15 A2995 RMK AO2 SLP129 T02060150

TAF KPIR
Valid from the 20 at 18:00 until the 21 at 18:00 UTC


201720Z 2018/2118 03006KT P6SM SCT060
TEMPO 2018/2019 BKN020
FM210100 VRB03KT P6SM FEW250
FM211200 06006KT P6SM BKN090
KZMP FIR / North America



MET'MAP, your aeronautical weather chart ! - Copyright ORBIFLY December 2007 - Disclaimer

ORBIFLY MET'MAP TEAM :

Programming & Development : Alexandra Zaïnal
Concept & Development : Baudouin d'Aumeries
Co-Development & Prog : Marc-Olivier Méhu
Technical & hardware support : Manuel Goepfert

Contact : metmap@orbifly.com




SOURCES & CREDITS :

   NOAA       Earth
Advisory